M I D A S
Marine Information and Data Acquisition System
Tripno 1736 of the Zeeleeuw from 2009-07-22 06:57:50 to 2009-07-22 14:39:28
Back to CruiseResearch ActivitiesStationsMapUnderway DataData graphs

EquipmentUnitsComments
TimeDGPSUTC
LatitudeDGPSDM.mWGS84
LongitudeDGPSDM.mWGS84
SpeedMeteo Stationm/sRelative wind speed
DirectionMeteo StationdegRelative wind direction
TemperatureMeteo Stationdeg CelciusAir temperature
PressureMeteo StationPaAtmospheric pressure
HumidityMeteo Station%Relative humidity
Missing or incorrect values are displayed as -999
Metereological data collected by the RV Zeeleeuw from 2009-07-22 06:56:46 to 2009-07-22 15:28:27
Time Latitude Longitude Speed Direction Temperature Pressure Humidity
2009-07-22 06:57 51°13.662 2°55.96 4.8 36 18.4 100460 72
2009-07-22 06:58 51°13.66 2°55.959 3.3 3 18.4 100470 71
2009-07-22 06:59 51°13.659 2°55.961 1.6 21 18.4 100470 72
2009-07-22 07:00 51°13.661 2°55.96 4.7 25 18.4 100470 72
2009-07-22 07:01 51°13.66 2°55.962 3.5 33 18.4 100470 72
2009-07-22 07:02 51°13.662 2°55.961 4.7 28 18.4 100470 72
2009-07-22 07:03 51°13.661 2°55.96 5.2 24 18.4 100470 71
2009-07-22 07:04 51°13.662 2°55.96 2.4 32 18.4 100470 72
2009-07-22 07:05 51°13.661 2°55.959 3.3 38 18.5 100480 71
2009-07-22 07:06 51°13.676 2°55.906 4.5 39 18.5 100480 71
2009-07-22 07:07 51°13.692 2°55.812 3.8 33 18.4 100480 71
2009-07-22 07:08 51°13.692 2°55.753 4.1 33 18.5 100480 72
2009-07-22 07:09 51°13.694 2°55.753 6.3 34 18.5 100480 72
2009-07-22 07:10 51°13.725 2°55.734 3.5 251 18.5 100480 72
2009-07-22 07:11 51°13.817 2°55.646 3.5 39 18.5 100480 71
2009-07-22 07:12 51°13.943 2°55.547 5 240 18.6 100470 72
2009-07-22 07:13 51°14.083 2°55.446 5.4 31 18.5 100480 72
2009-07-22 07:14 51°14.219 2°55.313 8.8 33 18.6 100470 70
2009-07-22 07:15 51°14.333 2°55.119 11 38 18.6 100470 70
2009-07-22 07:16 51°14.424 2°54.871 13 33 18.6 100440 70
2009-07-22 07:17 51°14.507 2°54.603 12.7 33 18.6 100450 71
2009-07-22 07:18 51°14.619 2°54.354 10 236 18.6 100450 71
2009-07-22 07:19 51°14.77 2°54.194 10.6 241 18.6 100470 71
2009-07-22 07:20 51°14.928 2°54.032 11.2 244 18.6 100470 72
2009-07-22 07:21 51°15.085 2°53.881 9.6 243 18.5 100470 71
2009-07-22 07:22 51°15.242 2°53.732 10.2 241 18.5 100470 72
2009-07-22 07:23 51°15.396 2°53.583 9.9 245 18.5 100470 73
2009-07-22 07:24 51°15.552 2°53.429 9.3 240 18.5 100470 71
2009-07-22 07:25 51°15.714 2°53.28 12.1 245 18.5 100460 72
2009-07-22 07:26 51°15.879 2°53.155 10.9 248 18.5 100470 72
2009-07-22 07:27 51°16.043 2°53.032 10.9 252 18.5 100470 73
2009-07-22 07:28 51°16.205 2°52.91 9.6 246 18.5 100470 73
2009-07-22 07:29 51°16.372 2°52.786 9 244 18.4 100470 72
2009-07-22 07:30 51°16.54 2°52.678 8 241 18.5 100470 73
2009-07-22 07:31 51°16.707 2°52.579 10.9 247 18.5 100470 73
2009-07-22 07:32 51°16.874 2°52.487 8.2 247 18.4 100480 73
2009-07-22 07:33 51°17.034 2°52.389 8.3 243 18.4 100480 72
2009-07-22 07:34 51°17.199 2°52.291 9.4 247 18.4 100470 73
2009-07-22 07:35 51°17.366 2°52.191 9.6 247 18.4 100480 72
2009-07-22 07:36 51°17.523 2°52.064 11 241 18.4 100470 72
2009-07-22 07:37 51°17.665 2°51.896 10.3 237 18.4 100470 72
2009-07-22 07:38 51°17.802 2°51.718 10.5 241 18.4 100460 73
2009-07-22 07:39 51°17.945 2°51.536 11.7 242 18.4 100470 72
2009-07-22 07:40 51°18.089 2°51.357 12.9 246 18.4 100460 72
2009-07-22 07:41 51°18.23 2°51.183 13.8 244 18.3 100460 73
2009-07-22 07:42 51°18.373 2°51.003 14.1 240 18.3 100460 72
2009-07-22 07:43 51°18.512 2°50.814 14.8 233 18.3 100450 72
2009-07-22 07:44 51°18.648 2°50.62 15 32 18.1 100450 71
2009-07-22 07:45 51°18.786 2°50.421 14.2 234 18 100460 71
2009-07-22 07:46 51°18.923 2°50.225 12.8 32 17.9 100460 71
2009-07-22 07:47 51°19.06 2°50.036 13.8 38 17.9 100470 72
2009-07-22 07:48 51°19.202 2°49.841 12.1 31 17.8 100460 71
2009-07-22 07:49 51°19.343 2°49.65 12.3 33 17.7 100460 72
2009-07-22 07:50 51°19.487 2°49.452 14.2 235 17.7 100460 72
2009-07-22 07:51 51°19.624 2°49.256 13.7 235 17.7 100460 72
2009-07-22 07:52 51°19.763 2°49.051 11.5 236 17.7 100460 72
2009-07-22 07:53 51°19.898 2°48.849 10.8 238 17.7 100460 72
2009-07-22 07:54 51°20.038 2°48.641 13.3 237 17.8 100460 72
2009-07-22 07:55 51°20.175 2°48.435 11.3 236 17.8 100460 71
2009-07-22 07:56 51°20.312 2°48.229 12.3 235 17.8 100450 71
2009-07-22 07:57 51°20.449 2°48.023 13.9 238 17.8 100460 71
2009-07-22 07:58 51°20.587 2°47.82 11 237 17.8 100450 71
2009-07-22 07:59 51°20.725 2°47.619 13.6 238 17.8 100460 71
2009-07-22 08:00 51°20.866 2°47.415 12.2 237 17.8 100450 70
2009-07-22 08:01 51°21.007 2°47.208 14.1 238 17.8 100450 71
2009-07-22 08:02 51°21.149 2°47.002 10.9 239 17.8 100450 71
2009-07-22 08:03 51°21.293 2°46.799 11.2 238 17.8 100460 69
2009-07-22 08:04 51°21.435 2°46.598 13.7 239 17.8 100450 69
2009-07-22 08:05 51°21.578 2°46.397 13.6 239 17.8 100460 69
2009-07-22 08:06 51°21.72 2°46.2 11.3 240 17.8 100450 69
2009-07-22 08:07 51°21.863 2°46.001 12.7 241 17.9 100460 69
2009-07-22 08:08 51°22.006 2°45.798 10 238 17.8 100450 68
2009-07-22 08:09 51°22.148 2°45.598 14.3 239 17.9 100450 69
2009-07-22 08:10 51°22.29 2°45.398 13.1 241 17.9 100450 69
2009-07-22 08:11 51°22.431 2°45.196 13.5 239 17.9 100450 69
2009-07-22 08:12 51°22.572 2°44.994 10.7 32 18 100440 68
2009-07-22 08:13 51°22.712 2°44.789 12.4 238 18 100440 68
2009-07-22 08:14 51°22.851 2°44.582 11.1 238 18 100440 68
2009-07-22 08:15 51°22.988 2°44.374 12.2 239 18 100450 68
2009-07-22 08:16 51°23.13 2°44.167 13.2 242 18 100440 69
2009-07-22 08:17 51°23.271 2°43.958 12.1 238 18 100440 69
2009-07-22 08:18 51°23.413 2°43.751 11.6 242 18 100450 68
2009-07-22 08:19 51°23.555 2°43.542 9.9 242 18 100430 68
2009-07-22 08:20 51°23.699 2°43.338 11.5 241 18 100440 68
2009-07-22 08:21 51°23.844 2°43.138 12.9 240 18 100450 68
2009-07-22 08:22 51°23.991 2°42.942 15.3 240 18 100440 69
2009-07-22 08:23 51°24.142 2°42.761 11.5 242 17.9 100450 68
2009-07-22 08:24 51°24.296 2°42.586 14.8 242 17.9 100440 69
2009-07-22 08:25 51°24.451 2°42.42 14.5 243 17.9 100450 68
2009-07-22 08:26 51°24.606 2°42.257 10.2 242 17.9 100450 69
2009-07-22 08:27 51°24.759 2°42.096 10.7 241 17.9 100460 67
2009-07-22 08:28 51°24.919 2°41.952 9.7 245 17.9 100460 69
2009-07-22 08:29 51°25.079 2°41.809 10.8 245 17.9 100460 68
2009-07-22 08:30 51°25.231 2°41.637 13.1 241 17.8 100450 68
2009-07-22 08:31 51°25.377 2°41.447 12.9 244 17.7 100460 67
2009-07-22 08:32 51°25.51 2°41.23 16.2 238 17.7 100460 67
2009-07-22 08:33 51°25.619 2°40.973 15.5 237 17.7 100450 67
2009-07-22 08:34 51°25.718 2°40.701 15.1 33 17.7 100450 67
2009-07-22 08:35 51°25.817 2°40.428 16.7 236 17.7 100440 66
2009-07-22 08:36 51°25.92 2°40.159 14.1 236 17.7 100450 66
2009-07-22 08:37 51°26.041 2°39.916 13 240 17.7 100460 67
2009-07-22 08:38 51°26.165 2°39.678 12.9 241 17.7 100460 67
2009-07-22 08:39 51°26.297 2°39.459 12.1 236 17.8 100460 66
2009-07-22 08:40 51°26.422 2°39.234 13.9 237 17.8 100460 67
2009-07-22 08:41 51°26.514 2°38.964 13.6 235 17.7 100450 66
2009-07-22 08:42 51°26.595 2°38.678 14.5 234 17.7 100450 66
2009-07-22 08:43 51°26.679 2°38.395 14 236 17.7 100440 65
2009-07-22 08:44 51°26.798 2°38.168 11.3 247 17.7 100470 65
2009-07-22 08:45 51°26.944 2°37.989 13.8 246 17.7 100470 65
2009-07-22 08:46 51°27.088 2°37.809 10.5 249 17.7 100470 66
2009-07-22 08:47 51°27.232 2°37.626 10.7 247 17.8 100470 66
2009-07-22 08:48 51°27.375 2°37.44 12.6 246 17.8 100460 65
2009-07-22 08:49 51°27.518 2°37.253 11.3 246 17.8 100450 65
2009-07-22 08:50 51°27.66 2°37.068 12.3 247 17.7 100460 65
2009-07-22 08:51 51°27.803 2°36.882 11.7 246 17.8 100460 65
2009-07-22 08:52 51°27.945 2°36.693 12.7 248 17.7 100460 65
2009-07-22 08:53 51°28.087 2°36.505 12.4 242 17.7 100440 65
2009-07-22 08:54 51°28.227 2°36.314 10.4 243 17.7 100440 66
2009-07-22 08:55 51°28.37 2°36.118 10.4 244 17.7 100450 65
2009-07-22 08:56 51°28.518 2°35.943 11.9 249 17.7 100440 65
2009-07-22 08:57 51°28.686 2°35.878 5.6 260 17.7 100460 65
2009-07-22 08:58 51°28.846 2°35.947 5.9 36 17.7 100460 66
2009-07-22 08:59 51°29.007 2°36.03 4.5 265 17.6 100460 66
2009-07-22 09:00 51°29.171 2°36.098 4.3 32 17.6 100460 66
2009-07-22 09:01 51°29.334 2°36.171 5.3 267 17.5 100460 66
2009-07-22 09:02 51°29.497 2°36.246 3.9 265 17.5 100460 65
2009-07-22 09:03 51°29.663 2°36.322 4.3 267 17.5 100470 66
2009-07-22 09:04 51°29.824 2°36.399 5.3 269 17.5 100460 65
2009-07-22 09:05 51°29.987 2°36.471 6 269 17.5 100460 67
2009-07-22 09:06 51°30.15 2°36.548 5.1 270 17.5 100470 66
2009-07-22 09:07 51°30.311 2°36.627 5.3 40 17.5 100450 67
2009-07-22 09:08 51°30.473 2°36.702 4 264 17.4 100460 66
2009-07-22 09:09 51°30.635 2°36.78 7 260 17.5 100460 65
2009-07-22 09:10 51°30.798 2°36.858 5.8 261 17.4 100460 66
2009-07-22 09:11 51°30.96 2°36.934 6.1 39 17.4 100460 64
2009-07-22 09:12 51°31.121 2°37.009 6.3 32 17.4 100460 64
2009-07-22 09:13 51°31.282 2°37.085 6.5 37 17.4 100460 65
2009-07-22 09:14 51°31.443 2°37.16 7.3 38 17.4 100460 63
2009-07-22 09:15 51°31.606 2°37.236 4.9 268 17.4 100460 64
2009-07-22 09:16 51°31.768 2°37.316 5.8 12 17.4 100460 63
2009-07-22 09:17 51°31.928 2°37.402 3.3 269 17.4 100470 64
2009-07-22 09:18 51°32.087 2°37.491 5.5 267 17.4 100460 65
2009-07-22 09:19 51°32.247 2°37.579 7.4 32 17.4 100470 63
2009-07-22 09:20 51°32.408 2°37.666 5.6 42 17.4 100470 63
2009-07-22 09:21 51°32.57 2°37.759 4.9 264 17.5 100470 65
2009-07-22 09:22 51°32.731 2°37.85 5 254 17.4 100480 62
2009-07-22 09:23 51°32.891 2°37.944 5.7 39 17.5 100470 65
2009-07-22 09:24 51°33.053 2°38.035 5.2 32 17.4 100480 63
2009-07-22 09:25 51°33.215 2°38.125 3.6 270 17.5 100480 64
2009-07-22 09:26 51°33.377 2°38.211 5.4 35 17.6 100480 63
2009-07-22 09:27 51°33.539 2°38.299 4.8 262 17.5 100480 65
2009-07-22 09:28 51°33.701 2°38.388 4.5 270 17.5 100480 64
2009-07-22 09:29 51°33.863 2°38.478 5.3 38 17.5 100480 65
2009-07-22 09:30 51°34.026 2°38.564 5.5 268 17.5 100490 65
2009-07-22 09:31 51°34.191 2°38.639 3.6 35 17.5 100480 65
2009-07-22 09:32 51°34.356 2°38.718 3.3 265 17.5 100490 64
2009-07-22 09:33 51°34.522 2°38.803 4.6 36 17.5 100490 65
2009-07-22 09:34 51°34.687 2°38.886 4.3 269 17.6 100480 65
2009-07-22 09:35 51°34.853 2°38.969 3.7 38 17.5 100490 65
2009-07-22 09:36 51°35.018 2°39.05 3.9 33 17.6 100490 65
2009-07-22 09:37 51°35.185 2°39.13 4.1 34 17.5 100490 64
2009-07-22 09:38 51°35.351 2°39.21 4.3 268 17.5 100490 65
2009-07-22 09:39 51°35.518 2°39.29 4.9 41 17.6 100490 64
2009-07-22 09:40 51°35.683 2°39.375 3 44 17.5 100500 65
2009-07-22 09:41 51°35.85 2°39.459 3.5 40 17.5 100490 65
2009-07-22 09:42 51°36.014 2°39.543 3.1 40 17.5 100500 65
2009-07-22 09:43 51°36.18 2°39.619 5.2 41 17.6 100500 66
2009-07-22 09:44 51°36.346 2°39.701 4.9 35 17.5 100500 64
2009-07-22 09:45 51°36.512 2°39.786 3.2 39 17.5 100490 64
2009-07-22 09:46 51°36.679 2°39.87 4.7 36 17.4 100490 64
2009-07-22 09:47 51°36.846 2°39.952 5.1 33 17.5 100490 65
2009-07-22 09:48 51°37.013 2°40.034 5.7 39 17.4 100500 63
2009-07-22 09:49 51°37.18 2°40.115 4.8 40 17.4 100490 64
2009-07-22 09:50 51°37.347 2°40.197 4.8 32 17.4 100500 64
2009-07-22 09:51 51°37.514 2°40.28 2.7 39 17.4 100490 64
2009-07-22 09:52 51°37.68 2°40.364 3.9 269 17.4 100490 66
2009-07-22 09:53 51°37.849 2°40.446 5.1 38 17.5 100500 66
2009-07-22 09:54 51°38.015 2°40.53 5.4 37 17.4 100490 65
2009-07-22 09:55 51°38.181 2°40.61 5.5 35 17.3 100500 66
2009-07-22 09:56 51°38.346 2°40.687 6.3 32 17.3 100490 65
2009-07-22 09:57 51°38.511 2°40.761 5.3 37 17.3 100490 66
2009-07-22 09:58 51°38.673 2°40.841 3.5 41 17.4 100490 66
2009-07-22 09:59 51°38.835 2°40.928 6 36 17.4 100490 65
2009-07-22 10:00 51°38.995 2°41.022 6.9 39 17.3 100490 65
2009-07-22 10:01 51°39.155 2°41.114 5.7 39 17.3 100480 65
2009-07-22 10:02 51°39.316 2°41.209 4.2 33 17.3 100490 67
2009-07-22 10:03 51°39.477 2°41.3 5.5 35 17.4 100490 67
2009-07-22 10:04 51°39.64 2°41.392 6.5 33 17.4 100490 66
2009-07-22 10:05 51°39.802 2°41.49 6.1 40 17.3 100480 65
2009-07-22 10:06 51°39.964 2°41.587 4.9 35 17.3 100480 66
2009-07-22 10:07 51°40.127 2°41.681 6.3 33 17.3 100480 66
2009-07-22 10:08 51°40.289 2°41.779 5.4 37 17.4 100480 67
2009-07-22 10:09 51°40.452 2°41.874 5.8 32 17.4 100480 65
2009-07-22 10:10 51°40.613 2°41.966 5.6 34 17.3 100480 66
2009-07-22 10:11 51°40.773 2°42.068 4.7 39 17.4 100480 66
2009-07-22 10:12 51°40.935 2°42.162 5.9 36 17.4 100480 65
2009-07-22 10:13 51°41.097 2°42.262 6.3 39 17.4 100480 66
2009-07-22 10:14 51°41.259 2°42.358 5 38 17.3 100480 66
2009-07-22 10:15 51°41.421 2°42.46 4.5 40 17.4 100470 65
2009-07-22 10:16 51°41.584 2°42.555 4.6 40 17.4 100480 67
2009-07-22 10:17 51°41.746 2°42.654 5.6 39 17.5 100480 67
2009-07-22 10:18 51°41.908 2°42.749 5.9 35 17.4 100470 65
2009-07-22 10:19 51°42.071 2°42.847 4.5 41 17.4 100480 65
2009-07-22 10:20 51°42.232 2°42.947 4.3 38 17.4 100480 65
2009-07-22 10:21 51°42.395 2°43.046 4.3 33 17.4 100470 66
2009-07-22 10:22 51°42.556 2°43.149 4.6 36 17.5 100480 66
2009-07-22 10:23 51°42.71 2°43.277 4.1 35 17.4 100470 66
2009-07-22 10:24 51°42.825 2°43.494 4.4 38 17.4 100470 64
2009-07-22 10:25 51°42.932 2°43.723 4.1 38 17.4 100470 66
2009-07-22 10:26 51°43.036 2°43.954 5.8 40 17.4 100470 65
2009-07-22 10:27 51°43.102 2°44.216 8.2 24 17.5 100470 66
2009-07-22 10:28 51°43.08 2°44.505 8.6 11 17.5 100460 66
2009-07-22 10:29 51°43.032 2°44.797 10.9 9 17.4 100450 65
2009-07-22 10:30 51°42.976 2°45.086 9.2 6 17.4 100450 65
2009-07-22 10:31 51°42.861 2°45.327 11.1 3 17.4 100450 65
2009-07-22 10:32 51°42.719 2°45.527 13.4 355 17.3 100450 66
2009-07-22 10:33 51°42.556 2°45.676 17.9 354 17.3 100430 66
2009-07-22 10:34 51°42.375 2°45.741 15.3 343 17.3 100420 65
2009-07-22 10:35 51°42.195 2°45.676 15.2 335 17.3 100430 65
2009-07-22 10:36 51°42.022 2°45.565 15 338 17.4 100430 64
2009-07-22 10:37 51°41.842 2°45.468 16.5 337 17.6 100440 64
2009-07-22 10:38 51°41.662 2°45.382 17 336 17.6 100430 63
2009-07-22 10:39 51°41.483 2°45.288 19 336 17.6 100440 63
2009-07-22 10:40 51°41.306 2°45.193 16.2 335 17.6 100430 63
2009-07-22 10:41 51°41.13 2°45.097 16.7 335 17.6 100430 63
2009-07-22 10:42 51°40.953 2°45.001 18.4 330 17.7 100450 63
2009-07-22 10:43 51°40.775 2°44.912 16.9 335 17.7 100450 63
2009-07-22 10:44 51°40.598 2°44.811 13.9 334 17.7 100450 64
2009-07-22 10:45 51°40.425 2°44.703 16.5 331 17.8 100430 64
2009-07-22 10:46 51°40.253 2°44.592 19.9 333 17.7 100440 64
2009-07-22 10:47 51°40.083 2°44.485 18.1 333 17.6 100440 62
2009-07-22 10:48 51°39.912 2°44.379 15.7 332 17.7 100440 62
2009-07-22 10:49 51°39.74 2°44.27 17.9 332 17.7 100430 62
2009-07-22 10:50 51°39.569 2°44.164 14.5 333 17.7 100450 62
2009-07-22 10:51 51°39.398 2°44.058 15.7 331 17.7 100450 63
2009-07-22 10:52 51°39.228 2°43.953 19.1 334 17.7 100440 62
2009-07-22 10:53 51°39.057 2°43.846 18.3 333 17.8 100450 63
2009-07-22 10:54 51°38.888 2°43.739 16.6 334 17.7 100440 62
2009-07-22 10:55 51°38.72 2°43.637 15.5 334 17.7 100450 62
2009-07-22 10:56 51°38.551 2°43.532 17 333 17.7 100440 62
2009-07-22 10:57 51°38.382 2°43.424 19 334 17.7 100440 62
2009-07-22 10:58 51°38.214 2°43.32 15.8 334 17.8 100450 62
2009-07-22 10:59 51°38.047 2°43.219 16.2 333 17.8 100440 62
2009-07-22 11:00 51°37.879 2°43.115 17.5 332 17.7 100430 62
2009-07-22 11:01 51°37.712 2°43.01 18 332 17.7 100430 62
2009-07-22 11:02 51°37.546 2°42.905 18.1 334 17.7 100440 61
2009-07-22 11:03 51°37.379 2°42.801 17.4 334 17.7 100430 61
2009-07-22 11:04 51°37.213 2°42.702 18.8 333 17.8 100460 62
2009-07-22 11:05 51°37.047 2°42.594 16.2 333 17.8 100450 62
2009-07-22 11:06 51°36.883 2°42.49 18.8 334 17.8 100470 62
2009-07-22 11:07 51°36.72 2°42.39 15.1 336 17.8 100460 62
2009-07-22 11:08 51°36.553 2°42.288 16.1 334 17.8 100460 62
2009-07-22 11:09 51°36.388 2°42.184 16 335 17.8 100460 63
2009-07-22 11:10 51°36.224 2°42.083 15.7 334 17.8 100470 63
2009-07-22 11:11 51°36.062 2°41.985 16.6 335 17.8 100450 63
2009-07-22 11:12 51°35.9 2°41.883 15.5 335 17.8 100460 65
2009-07-22 11:13 51°35.741 2°41.786 16.3 333 17.7 100450 63
2009-07-22 11:14 51°35.581 2°41.69 16.4 337 17.8 100450 62
2009-07-22 11:15 51°35.422 2°41.592 15.8 336 17.8 100440 62
2009-07-22 11:16 51°35.262 2°41.497 13.6 339 17.8 100440 62
2009-07-22 11:17 51°35.105 2°41.402 16.5 338 17.8 100450 64
2009-07-22 11:18 51°34.948 2°41.309 16.2 337 17.8 100440 62
2009-07-22 11:19 51°34.791 2°41.214 15 339 17.8 100450 63
2009-07-22 11:20 51°34.634 2°41.123 14.7 336 17.8 100450 62
2009-07-22 11:21 51°34.48 2°41.031 16 338 17.8 100460 62
2009-07-22 11:22 51°34.327 2°40.94 15.3 338 17.8 100420 62
2009-07-22 11:23 51°34.174 2°40.849 15.4 338 17.8 100450 62
2009-07-22 11:24 51°34.024 2°40.758 18.9 338 17.7 100430 63
2009-07-22 11:25 51°33.87 2°40.664 17.9 340 17.7 100430 63
2009-07-22 11:26 51°33.715 2°40.574 18.8 339 17.7 100430 64
2009-07-22 11:27 51°33.562 2°40.484 17.4 339 17.7 100430 64
2009-07-22 11:28 51°33.411 2°40.397 16.8 337 17.7 100430 65
2009-07-22 11:29 51°33.259 2°40.306 16 340 17.7 100440 65
2009-07-22 11:30 51°33.105 2°40.239 14.5 347 17.7 100420 65
2009-07-22 11:31 51°32.938 2°40.293 17.2 353 17.5 100410 64
2009-07-22 11:32 51°32.771 2°40.381 14.5 353 17.5 100410 65
2009-07-22 11:33 51°32.602 2°40.467 14.8 353 17.5 100430 64
2009-07-22 11:34 51°32.434 2°40.555 16.1 356 17.4 100430 64
2009-07-22 11:35 51°32.298 2°40.716 9.4 18 17.4 100440 65
2009-07-22 11:36 51°32.286 2°41.02 7.2 35 17.4 100480 64
2009-07-22 11:37 51°32.342 2°41.333 5.6 20 17.4 100490 65
2009-07-22 11:38 51°32.467 2°41.592 5.5 28 17.6 100490 65
2009-07-22 11:39 51°32.645 2°41.756 7.9 29 17.6 100500 64
2009-07-22 11:40 51°32.829 2°41.901 6 266 17.6 100500 62
2009-07-22 11:41 51°33.015 2°42.048 7.1 23 17.7 100510 64
2009-07-22 11:42 51°33.2 2°42.199 8.5 267 17.7 100500 64
2009-07-22 11:43 51°33.387 2°42.344 7.1 30 17.8 100500 65
2009-07-22 11:44 51°33.572 2°42.496 4.7 30 17.7 100500 63
2009-07-22 11:45 51°33.755 2°42.651 6.6 27 17.8 100500 64
2009-07-22 11:46 51°33.939 2°42.8 7 29 17.8 100490 62
2009-07-22 11:47 51°34.123 2°42.95 4.2 24 17.8 100500 62
2009-07-22 11:48 51°34.309 2°43.097 4.7 27 17.9 100490 63
2009-07-22 11:49 51°34.496 2°43.237 5 270 17.8 100510 63
2009-07-22 11:50 51°34.684 2°43.378 5.3 264 17.8 100500 62
2009-07-22 11:51 51°34.875 2°43.515 4.6 36 17.8 100500 60
2009-07-22 11:52 51°35.063 2°43.65 4 265 17.9 100510 62
2009-07-22 11:53 51°35.253 2°43.787 3.2 266 18 100500 61
2009-07-22 11:54 51°35.442 2°43.927 4.2 19 18 100510 61
2009-07-22 11:55 51°35.634 2°44.067 5 37 18 100500 61
2009-07-22 11:56 51°35.826 2°44.21 3.1 267 18 100510 61
2009-07-22 11:57 51°36.015 2°44.353 4.5 266 18 100510 62
2009-07-22 11:58 51°36.207 2°44.49 5.1 26 18 100510 62
2009-07-22 11:59 51°36.398 2°44.64 5.4 267 18 100510 60
2009-07-22 12:00 51°36.591 2°44.778 5.2 44 18.1 100500 61
2009-07-22 12:01 51°36.783 2°44.922 4.4 268 18.1 100510 61
2009-07-22 12:02 51°36.98 2°45.037 6.2 267 18.1 100500 62
2009-07-22 12:03 51°37.183 2°45.139 7.8 261 18 100500 60
2009-07-22 12:04 51°37.388 2°45.239 5.8 264 18 100500 60
2009-07-22 12:05 51°37.59 2°45.361 4.5 331 18.1 100500 60
2009-07-22 12:06 51°37.79 2°45.493 4 263 18.1 100490 60
2009-07-22 12:07 51°37.991 2°45.626 5 268 18.2 100480 62
2009-07-22 12:08 51°38.191 2°45.751 6.9 34 18.2 100490 60
2009-07-22 12:09 51°38.392 2°45.876 5.6 267 18.1 100490 62
2009-07-22 12:10 51°38.593 2°46.002 4.9 265 18.2 100490 61
2009-07-22 12:11 51°38.795 2°46.129 6.6 32 18.1 100490 60
2009-07-22 12:12 51°38.996 2°46.259 4.2 267 18.1 100490 60
2009-07-22 12:13 51°39.195 2°46.387 4.7 265 18.2 100490 62
2009-07-22 12:14 51°39.396 2°46.511 6.6 268 18.1 100490 60
2009-07-22 12:15 51°39.596 2°46.631 4.4 268 18 100480 59
2009-07-22 12:16 51°39.797 2°46.755 5.4 265 18.1 100480 62
2009-07-22 12:17 51°39.998 2°46.879 7.6 270 18 100480 61
2009-07-22 12:18 51°40.199 2°47.006 6.8 268 18 100480 60
2009-07-22 12:19 51°40.402 2°47.135 5.6 23 18 100480 60
2009-07-22 12:20 51°40.602 2°47.271 4.8 269 18 100480 60
2009-07-22 12:21 51°40.787 2°47.46 5.5 30 17.9 100480 61
2009-07-22 12:22 51°40.97 2°47.66 5.4 33 18 100480 62
2009-07-22 12:23 51°41.153 2°47.862 4.7 28 18 100480 63
2009-07-22 12:24 51°41.336 2°48.063 3.9 26 18 100480 62
2009-07-22 12:25 51°41.517 2°48.267 2.8 34 18.1 100490 60
2009-07-22 12:26 51°41.581 2°48.569 11.1 14 18.1 100480 62
2009-07-22 12:27 51°41.471 2°48.801 15.7 358 18 100440 62
2009-07-22 12:28 51°41.329 2°48.996 11.5 358 17.9 100430 63
2009-07-22 12:29 51°41.184 2°49.191 13.9 356 17.8 100450 62
2009-07-22 12:30 51°41.026 2°49.306 14.5 346 17.7 100420 62
2009-07-22 12:31 51°40.867 2°49.299 15.4 339 17.6 100440 63
2009-07-22 12:32 51°40.717 2°49.225 14.3 340 17.8 100440 64
2009-07-22 12:33 51°40.566 2°49.154 15.8 340 17.8 100450 63
2009-07-22 12:34 51°40.411 2°49.09 15.4 343 17.9 100430 62
2009-07-22 12:35 51°40.254 2°49.028 14.5 340 17.9 100430 63
2009-07-22 12:36 51°40.099 2°48.971 14.7 342 17.9 100440 63
2009-07-22 12:37 51°39.941 2°48.906 14.5 340 17.9 100440 63
2009-07-22 12:38 51°39.782 2°48.848 15.3 341 17.9 100450 63
2009-07-22 12:39 51°39.623 2°48.795 16.2 342 17.9 100440 63
2009-07-22 12:40 51°39.468 2°48.735 14 342 17.8 100430 62
2009-07-22 12:41 51°39.316 2°48.66 15.4 340 17.9 100430 62
2009-07-22 12:42 51°39.167 2°48.579 14 340 17.9 100430 62
2009-07-22 12:43 51°39.018 2°48.485 17 340 17.9 100420 63
2009-07-22 12:44 51°38.871 2°48.392 15.1 341 17.9 100430 63
2009-07-22 12:45 51°38.722 2°48.302 16.4 341 17.9 100430 63
2009-07-22 12:46 51°38.573 2°48.216 16.2 341 17.9 100420 63
2009-07-22 12:47 51°38.427 2°48.131 17.2 340 17.9 100440 63
2009-07-22 12:48 51°38.281 2°48.045 15.8 338 17.9 100430 64
2009-07-22 12:49 51°38.136 2°47.96 14.8 339 17.9 100440 64
2009-07-22 12:50 51°37.988 2°47.873 15.7 339 17.9 100430 64
2009-07-22 12:51 51°37.839 2°47.782 16.4 340 17.9 100440 64
2009-07-22 12:52 51°37.692 2°47.695 16.3 337 17.8 100420 62
2009-07-22 12:53 51°37.543 2°47.606 15.3 341 17.8 100430 62
2009-07-22 12:54 51°37.393 2°47.517 16.1 338 17.9 100430 62
2009-07-22 12:55 51°37.244 2°47.427 14.8 338 17.9 100440 61
2009-07-22 12:56 51°37.096 2°47.338 12.6 339 17.9 100450 63
2009-07-22 12:57 51°36.949 2°47.255 16.9 339 17.9 100460 62
2009-07-22 12:58 51°36.798 2°47.166 16.1 337 17.9 100450 61
2009-07-22 12:59 51°36.649 2°47.08 14.7 337 17.9 100450 62
2009-07-22 13:00 51°36.499 2°46.993 16.5 340 17.9 100440 62
2009-07-22 13:01 51°36.347 2°46.918 14.6 342 17.9 100430 62
2009-07-22 13:02 51°36.194 2°46.838 16.6 339 17.9 100440 61
2009-07-22 13:03 51°36.042 2°46.757 14.6 340 18 100440 61
2009-07-22 13:04 51°35.891 2°46.674 16.3 341 18 100440 61
2009-07-22 13:05 51°35.739 2°46.591 15.1 338 18 100450 60
2009-07-22 13:06 51°35.59 2°46.509 16.5 340 18.1 100450 62
2009-07-22 13:07 51°35.44 2°46.419 14.7 341 18.1 100450 63
2009-07-22 13:08 51°35.29 2°46.331 15 342 18 100440 62
2009-07-22 13:09 51°35.14 2°46.239 15.5 342 18 100450 62
2009-07-22 13:10 51°34.992 2°46.147 15.1 342 18 100460 61
2009-07-22 13:11 51°34.843 2°46.058 15.9 342 18 100470 62
2009-07-22 13:12 51°34.695 2°45.972 17.7 345 18 100440 61
2009-07-22 13:13 51°34.546 2°45.883 18.2 341 18 100450 61
2009-07-22 13:14 51°34.398 2°45.804 14.5 343 17.9 100440 60
2009-07-22 13:15 51°34.247 2°45.724 14.8 344 18 100450 62
2009-07-22 13:16 51°34.096 2°45.644 16 345 18 100450 61
2009-07-22 13:17 51°33.947 2°45.566 15.5 345 17.9 100430 61
2009-07-22 13:18 51°33.798 2°45.487 13.3 345 17.9 100440 62
2009-07-22 13:19 51°33.648 2°45.417 13.1 346 17.9 100440 63
2009-07-22 13:20 51°33.496 2°45.346 14 344 17.8 100430 61
2009-07-22 13:21 51°33.344 2°45.276 15.3 345 17.8 100430 63
2009-07-22 13:22 51°33.193 2°45.204 14.5 347 17.8 100440 63
2009-07-22 13:23 51°33.042 2°45.135 14.6 346 17.8 100430 63
2009-07-22 13:24 51°32.89 2°45.064 13.7 347 17.8 100450 63
2009-07-22 13:25 51°32.74 2°44.995 13 346 17.8 100450 63
2009-07-22 13:26 51°32.589 2°44.925 13.9 347 17.8 100440 62
2009-07-22 13:27 51°32.437 2°44.856 13.6 347 17.8 100450 62
2009-07-22 13:28 51°32.287 2°44.79 15.3 347 17.8 100450 62
2009-07-22 13:29 51°32.14 2°44.706 15.5 346 17.8 100450 62
2009-07-22 13:30 51°31.999 2°44.617 13.8 346 17.8 100460 62
2009-07-22 13:31 51°31.852 2°44.524 15.6 345 17.8 100460 64
2009-07-22 13:32 51°31.708 2°44.433 14.5 346 17.8 100460 64
2009-07-22 13:33 51°31.562 2°44.343 12.9 348 17.7 100450 63
2009-07-22 13:34 51°31.417 2°44.25 13.4 344 17.8 100440 63
2009-07-22 13:35 51°31.272 2°44.158 14.9 343 17.8 100430 62
2009-07-22 13:36 51°31.127 2°44.066 15.9 346 17.8 100440 62
2009-07-22 13:37 51°30.981 2°43.975 15.2 345 17.8 100430 61
2009-07-22 13:38 51°30.836 2°43.887 14.2 342 17.8 100420 62
2009-07-22 13:39 51°30.691 2°43.801 15.1 345 17.8 100410 61
2009-07-22 13:40 51°30.545 2°43.73 14.1 346 17.8 100440 62
2009-07-22 13:41 51°30.396 2°43.669 13.8 347 17.8 100430 61
2009-07-22 13:42 51°30.243 2°43.627 14.4 351 17.8 100440 62
2009-07-22 13:43 51°30.081 2°43.637 15.9 355 17.8 100420 62
2009-07-22 13:44 51°29.92 2°43.642 14.9 350 17.8 100430 61
2009-07-22 13:45 51°29.761 2°43.637 14.3 356 17.8 100440 61
2009-07-22 13:46 51°29.599 2°43.724 11.5 360 17.8 100450 62
2009-07-22 13:47 51°29.438 2°43.83 13.8 356 17.8 100440 61
2009-07-22 13:48 51°29.275 2°43.931 14 1 17.8 100450 62
2009-07-22 13:49 51°29.115 2°44.035 12.5 360 17.8 100430 61
2009-07-22 13:50 51°28.955 2°44.143 13.5 1 17.8 100450 63
2009-07-22 13:51 51°28.794 2°44.253 12.1 360 17.9 100440 63
2009-07-22 13:52 51°28.633 2°44.374 13.2 3 17.9 100430 62
2009-07-22 13:53 51°28.473 2°44.496 12.9 360 17.9 100440 61
2009-07-22 13:54 51°28.311 2°44.619 14.7 359 17.9 100440 62
2009-07-22 13:55 51°28.148 2°44.738 12.4 360 17.9 100440 61
2009-07-22 13:56 51°27.985 2°44.858 14.7 1 17.9 100450 60
2009-07-22 13:57 51°27.821 2°44.976 13.3 359 17.9 100440 62
2009-07-22 13:58 51°27.655 2°45.093 12.7 3 18 100440 61
2009-07-22 13:59 51°27.489 2°45.205 11.7 5 18 100450 61
2009-07-22 14:00 51°27.324 2°45.32 11 2 18 100440 60
2009-07-22 14:01 51°27.16 2°45.433 12.4 360 18 100460 60
2009-07-22 14:02 51°26.994 2°45.549 12.2 3 18.1 100450 60
2009-07-22 14:03 51°26.829 2°45.667 11.7 3 18 100450 62
2009-07-22 14:04 51°26.664 2°45.781 13.1 1 18.1 100450 62
2009-07-22 14:05 51°26.501 2°45.896 10.9 360 18 100450 61
2009-07-22 14:06 51°26.338 2°46.01 10.5 2 18 100450 62
2009-07-22 14:07 51°26.174 2°46.121 11 4 18.1 100460 63
2009-07-22 14:08 51°26.012 2°46.232 11 3 18.1 100450 61
2009-07-22 14:09 51°25.848 2°46.343 10.4 4 18 100460 61
2009-07-22 14:10 51°25.686 2°46.456 9.6 4 18.1 100450 62
2009-07-22 14:11 51°25.521 2°46.563 11 2 18.1 100450 63
2009-07-22 14:12 51°25.357 2°46.679 10.1 3 18 100460 62
2009-07-22 14:13 51°25.192 2°46.79 9.4 7 18 100460 62
2009-07-22 14:14 51°25.027 2°46.904 10.3 4 18.1 100460 60
2009-07-22 14:15 51°24.86 2°47.016 9.7 5 18.1 100460 61
2009-07-22 14:16 51°24.693 2°47.127 9.7 4 18.1 100460 61
2009-07-22 14:17 51°24.528 2°47.241 9.6 4 18.1 100470 61
2009-07-22 14:18 51°24.362 2°47.352 10.7 6 18.1 100470 60
2009-07-22 14:19 51°24.196 2°47.466 9.2 4 18.1 100470 61
2009-07-22 14:20 51°24.03 2°47.576 10.6 6 18.1 100470 61
2009-07-22 14:21 51°23.864 2°47.688 8.3 9 18.1 100470 60
2009-07-22 14:22 51°23.696 2°47.793 9.1 7 18.2 100460 62
2009-07-22 14:23 51°23.528 2°47.898 9.1 8 18.1 100460 61
2009-07-22 14:24 51°23.361 2°48.01 8.7 7 18.1 100460 62
2009-07-22 14:25 51°23.194 2°48.128 7.7 7 18.2 100460 61
2009-07-22 14:26 51°23.029 2°48.249 8.8 8 18.2 100460 59
2009-07-22 14:27 51°22.866 2°48.369 10.9 8 18.1 100450 60
2009-07-22 14:28 51°22.701 2°48.484 10.3 6 18.1 100450 60
2009-07-22 14:29 51°22.539 2°48.608 7.7 8 18.2 100450 60
2009-07-22 14:30 51°22.374 2°48.728 10.6 9 18.2 100460 59
2009-07-22 14:31 51°22.206 2°48.845 11.1 8 18.2 100450 60
2009-07-22 14:32 51°22.035 2°48.959 10 9 18.2 100450 60
2009-07-22 14:33 51°21.865 2°49.084 9.7 8 18.2 100450 61
2009-07-22 14:34 51°21.695 2°49.21 7.1 6 18.2 100460 61
2009-07-22 14:35 51°21.526 2°49.336 9.2 10 18.2 100460 60
2009-07-22 14:36 51°21.357 2°49.464 10 11 18.2 100460 60
2009-07-22 14:37 51°21.19 2°49.591 7.9 5 18.1 100450 59
2009-07-22 14:38 51°21.023 2°49.719 9 8 18.2 100460 60
2009-07-22 14:39 51°20.858 2°49.847 8.7 9 18.2 100450 59
2009-07-22 14:40 51°20.694 2°49.98 9.9 10 18.2 100450 59
2009-07-22 14:41 51°20.53 2°50.108 11.9 11 18.3 100450 61
2009-07-22 14:42 51°20.366 2°50.235 11.1 11 18.2 100440 59
2009-07-22 14:43 51°20.202 2°50.36 10.8 12 18.3 100450 59
2009-07-22 14:44 51°20.036 2°50.481 9.7 12 18.3 100440 59
2009-07-22 14:45 51°19.87 2°50.598 9.4 9 18.3 100440 59
2009-07-22 14:46 51°19.702 2°50.713 8.9 7 18.3 100450 60
2009-07-22 14:47 51°19.533 2°50.826 10.6 9 18.3 100450 58
2009-07-22 14:48 51°19.364 2°50.938 10 11 18.4 100460 60
2009-07-22 14:49 51°19.194 2°51.054 9.5 11 18.4 100460 61
2009-07-22 14:50 51°19.027 2°51.172 11.3 10 18.3 100460 60
2009-07-22 14:51 51°18.861 2°51.288 8.7 9 18.3 100450 60
2009-07-22 14:52 51°18.694 2°51.404 9.5 13 18.4 100450 58
2009-07-22 14:53 51°18.527 2°51.52 10 12 18.3 100450 60
2009-07-22 14:54 51°18.361 2°51.635 9 9 18.3 100450 60
2009-07-22 14:55 51°18.194 2°51.749 10.3 9 18.3 100450 60
2009-07-22 14:56 51°18.026 2°51.86 10.6 9 18.3 100450 61
2009-07-22 14:57 51°17.854 2°51.936 8.8 7 18.3 100440 60
2009-07-22 14:58 51°17.68 2°51.997 13.1 14 18.2 100440 58
2009-07-22 14:59 51°17.506 2°52.067 11.3 13 18.3 100440 59
2009-07-22 15:00 51°17.333 2°52.152 9.7 12 18.3 100450 60
2009-07-22 15:01 51°17.164 2°52.264 8.6 15 18.3 100450 59
2009-07-22 15:02 51°17.002 2°52.4 8.7 18 18.3 100450 59
2009-07-22 15:03 51°16.845 2°52.556 8.1 15 18.4 100450 61
2009-07-22 15:04 51°16.688 2°52.711 8 15 18.4 100440 60
2009-07-22 15:05 51°16.527 2°52.864 11.6 16 18.4 100450 60
2009-07-22 15:06 51°16.364 2°53.007 9.9 15 18.4 100450 59
2009-07-22 15:07 51°16.201 2°53.154 10.4 17 18.4 100450 59
2009-07-22 15:08 51°16.037 2°53.295 10.9 15 18.5 100450 60
2009-07-22 15:09 51°15.871 2°53.433 10.2 18 18.5 100450 61
2009-07-22 15:10 51°15.709 2°53.585 10.1 17 18.4 100450 60
2009-07-22 15:11 51°15.545 2°53.737 8.3 12 18.5 100450 59
2009-07-22 15:12 51°15.383 2°53.89 8.5 16 18.5 100460 61
2009-07-22 15:13 51°15.223 2°54.04 8.5 13 18.5 100450 60
2009-07-22 15:14 51°15.06 2°54.192 9.2 14 18.5 100450 59
2009-07-22 15:15 51°14.9 2°54.349 8.6 21 18.6 100450 61
2009-07-22 15:16 51°14.741 2°54.514 7.7 21 18.5 100440 59
2009-07-22 15:17 51°14.589 2°54.7 7.4 19 18.6 100450 60
2009-07-22 15:18 51°14.446 2°54.903 6.6 27 18.6 100450 61
2009-07-22 15:19 51°14.325 2°55.133 6.3 29 18.6 100460 60
2009-07-22 15:20 51°14.208 2°55.326 6.1 10 18.6 100460 58
2009-07-22 15:21 51°14.079 2°55.439 4.6 345 18.7 100460 58
2009-07-22 15:22 51°13.954 2°55.532 6.4 11 18.8 100470 57
2009-07-22 15:23 51°13.834 2°55.621 3.6 358 18.9 100470 57
2009-07-22 15:24 51°13.747 2°55.719 5.8 24 19 100470 57
2009-07-22 15:25 51°13.699 2°55.819 2.7 40 19.1 100470 56
2009-07-22 15:26 51°13.675 2°55.904 7.2 25 19.2 100470 56
2009-07-22 15:27 51°13.663 2°55.951 4.3 30 19.2 100460 56